Time;durP1;ratioP1;P1;durP2;ratioP2;P2;SDS_P1;SDS_P2;PMS_P1;PMS_P2;Temp;Humidity;BMP_temperature;BMP_pressure;BME280_temperature;BME280_humidity;BME280_pressure;Samples;Min_cycle;Max_cycle;Signal;HPM_P1;HPM_P2
2023/07/24 04:06:39;;;;;;;;;12.25;12.25;;;;;;;;5669497;46;10000995;-57
2023/07/24 04:56:03;;;;;;;;;17.50;15.25;;;;;;;;6493772;46;9081;-56
2023/07/24 05:02:06;;;;;;;;;17.75;16.50;;;;;;;;6490650;39;8935;-56
2023/07/24 05:08:09;;;;;;;;;16.50;14.50;;;;;;;;6491102;46;8872;-57
2023/07/24 05:14:12;;;;;;;;;12.25;12.25;;;;;;;;6491126;39;8905;-56
2023/07/24 05:20:17;;;;;;;;;12.25;11.25;;;;;;;;6489553;39;8879;-55
2023/07/24 05:26:19;;;;;;;;;15.25;15.25;;;;;;;;6490041;47;8913;-57
2023/07/24 05:32:21;;;;;;;;;19.25;16.50;;;;;;;;6490846;31;8911;-56
2023/07/24 05:38:24;;;;;;;;;14.00;13.50;;;;;;;;6490668;47;8928;-57
2023/07/24 05:44:26;;;;;;;;;11.00;10.00;;;;;;;;6491178;39;9033;-56
2023/07/24 05:50:28;;;;;;;;;14.00;13.25;;;;;;;;6491497;39;9605;-56
2023/07/24 05:56:31;;;;;;;;;11.25;10.25;;;;;;;;6492998;39;8901;-58
2023/07/24 06:02:35;;;;;;;;;12.25;12.25;;;;;;;;6490983;31;8986;-57
2023/07/24 06:08:42;;;;;;;;;13.50;12.25;;;;;;;;6492152;39;9000;-58
2023/07/24 06:14:47;;;;;;;;;16.00;16.00;;;;;;;;6492198;39;9502;-56
2023/07/24 06:20:53;;;;;;;;;13.67;11.33;;;;;;;;6490951;39;8968;-56
2023/07/24 06:26:55;;;;;;;;;12.50;10.50;;;;;;;;6492166;39;8978;-57
2023/07/24 06:32:59;;;;;;;;;16.00;13.75;;;;;;;;6489477;39;8983;-59
2023/07/24 06:39:02;;;;;;;;;11.25;11.25;;;;;;;;6491391;31;8891;-56
2023/07/24 06:45:08;;;;;;;;;9.00;8.50;;;;;;;;6489535;39;8990;-57
2023/07/24 06:51:12;;;;;;;;;13.50;12.00;;;;;;;;6489620;39;9580;-55
2023/07/24 06:57:14;;;;;;;;;19.50;19.50;;;;;;;;6491900;39;8938;-59
2023/07/24 07:03:17;;;;;;;;;11.00;11.00;;;;;;;;6489570;46;9071;-56
2023/07/24 07:09:22;;;;;;;;;12.25;12.00;;;;;;;;6489971;39;8890;-56
2023/07/24 07:15:25;;;;;;;;;10.25;9.25;;;;;;;;6490961;39;8980;-56
2023/07/24 07:21:29;;;;;;;;;11.75;10.75;;;;;;;;6490289;46;8993;-57
2023/07/24 07:27:34;;;;;;;;;7.75;6.50;;;;;;;;6490026;39;9549;-58
2023/07/24 07:33:42;;;;;;;;;33.75;30.25;;;;;;;;6489787;46;8913;-56
2023/07/24 07:39:47;;;;;;;;;15.75;15.75;;;;;;;;6490802;39;8927;-57
2023/07/24 07:45:53;;;;;;;;;12.75;12.75;;;;;;;;6484389;39;9076;-57
2023/07/24 07:51:58;;;;;;;;;14.25;14.25;;;;;;;;6488408;39;8962;-57
2023/07/24 07:58:01;;;;;;;;;11.25;10.75;;;;;;;;6485971;46;9021;-57
2023/07/24 08:04:08;;;;;;;;;9.75;9.75;;;;;;;;6484758;39;9027;-54
2023/07/24 08:10:14;;;;;;;;;14.75;14.75;;;;;;;;6484244;31;8979;-57
2023/07/24 08:16:21;;;;;;;;;8.75;8.75;;;;;;;;6484319;31;9153;-59
2023/07/24 08:22:24;;;;;;;;;24.67;22.33;;;;;;;;6485064;31;9389;-57
2023/07/24 08:28:28;;;;;;;;;10.75;10.25;;;;;;;;6485604;39;9116;-57
2023/07/24 08:34:33;;;;;;;;;9.50;9.00;;;;;;;;6486216;46;9059;-56
2023/07/24 08:40:35;;;;;;;;;11.25;11.25;;;;;;;;6485093;39;8938;-53
2023/07/24 08:46:41;;;;;;;;;13.75;13.00;;;;;;;;6486214;39;9089;-57
2023/07/24 08:52:44;;;;;;;;;15.50;14.25;;;;;;;;6486333;46;8971;-55
2023/07/24 08:58:47;;;;;;;;;10.50;10.50;;;;;;;;6486510;46;8923;-57
2023/07/24 09:04:50;;;;;;;;;14.25;12.50;;;;;;;;6486408;39;9102;-58
2023/07/24 09:10:54;;;;;;;;;12.75;12.75;;;;;;;;6485680;39;9647;-60
2023/07/24 09:17:12;;;;;;;;;14.00;12.75;;;;;;;;6486152;31;9549;-57
2023/07/24 09:23:16;;;;;;;;;13.50;12.00;;;;;;;;6487583;31;9174;-56
2023/07/24 09:29:31;;;;;;;;;6.75;6.00;;;;;;;;6482633;47;8980;-58
2023/07/24 09:35:33;;;;;;;;;27.00;26.00;;;;;;;;6486911;39;9018;-55
2023/07/24 09:41:40;;;;;;;;;13.00;13.00;;;;;;;;6488066;39;8956;-55
2023/07/24 09:47:44;;;;;;;;;18.00;17.25;;;;;;;;6484499;39;8907;-57
2023/07/24 09:53:57;;;;;;;;;14.75;14.50;;;;;;;;6485599;31;8986;-55
2023/07/24 10:00:00;;;;;;;;;11.00;11.00;;;;;;;;6483665;39;8945;-57
2023/07/24 10:06:14;;;;;;;;;15.75;15.25;;;;;;;;6483372;39;9079;-56
2023/07/24 10:12:20;;;;;;;;;18.33;17.67;;;;;;;;6485515;47;8934;-57
2023/07/24 10:18:28;;;;;;;;;10.50;10.50;;;;;;;;6484721;47;9086;-55
2023/07/24 10:24:34;;;;;;;;;11.25;10.75;;;;;;;;6486064;47;8942;-57
2023/07/24 10:30:44;;;;;;;;;10.50;10.50;;;;;;;;6485923;46;8930;-60
2023/07/24 10:36:48;;;;;;;;;11.25;11.00;;;;;;;;6486598;46;9005;-58
2023/07/24 10:43:05;;;;;;;;;12.00;10.50;;;;;;;;6486699;31;8933;-57
2023/07/24 10:49:08;;;;;;;;;12.00;11.00;;;;;;;;6486615;46;8923;-58
2023/07/24 10:55:12;;;;;;;;;13.00;12.50;;;;;;;;6487090;31;8968;-59
2023/07/24 11:01:15;;;;;;;;;10.00;10.00;;;;;;;;6481622;39;9622;-58
2023/07/24 11:07:18;;;;;;;;;7.25;7.25;;;;;;;;6488047;39;8990;-57
2023/07/24 11:13:24;;;;;;;;;11.75;11.75;;;;;;;;6487152;31;9048;-56
2023/07/24 11:19:27;;;;;;;;;9.50;9.50;;;;;;;;6484686;46;9055;-59
2023/07/24 11:25:31;;;;;;;;;10.50;10.50;;;;;;;;6487498;46;9056;-59
2023/07/24 11:31:40;;;;;;;;;11.00;11.00;;;;;;;;6486881;39;9356;-60
2023/07/24 11:37:44;;;;;;;;;11.50;10.00;;;;;;;;6484453;31;8929;-61
2023/07/24 11:43:49;;;;;;;;;11.50;11.50;;;;;;;;6484341;46;9089;-59
2023/07/24 11:50:11;;;;;;;;;8.50;8.00;;;;;;;;6486314;39;8989;-60
2023/07/24 11:56:23;;;;;;;;;13.00;12.00;;;;;;;;6488890;31;9043;-60
2023/07/24 12:02:27;;;;;;;;;10.75;9.75;;;;;;;;6487920;39;8969;-61
2023/07/24 12:08:37;;;;;;;;;14.50;11.25;;;;;;;;6487699;46;9076;-61
2023/07/24 12:14:40;;;;;;;;;9.75;9.75;;;;;;;;6486271;39;8959;-61
2023/07/24 12:20:44;;;;;;;;;14.25;12.75;;;;;;;;6487275;39;9018;-59
2023/07/24 12:26:46;;;;;;;;;17.50;17.50;;;;;;;;6486489;46;8972;-59
2023/07/24 12:32:49;;;;;;;;;13.00;13.00;;;;;;;;6486698;46;8925;-60
2023/07/24 12:38:54;;;;;;;;;11.50;11.50;;;;;;;;6485862;31;8963;-59
2023/07/24 12:44:57;;;;;;;;;12.00;12.00;;;;;;;;6486407;46;8955;-60
2023/07/24 12:51:00;;;;;;;;;13.50;12.25;;;;;;;;6488191;39;8954;-60
2023/07/24 12:57:08;;;;;;;;;14.75;13.00;;;;;;;;6487513;39;8929;-60
2023/07/24 13:03:11;;;;;;;;;12.25;10.25;;;;;;;;6486150;39;8934;-60
2023/07/24 13:09:15;;;;;;;;;12.50;12.50;;;;;;;;6487158;39;9022;-60
2023/07/24 13:15:21;;;;;;;;;12.50;12.50;;;;;;;;6485541;31;8927;-60
2023/07/24 13:21:24;;;;;;;;;14.50;14.50;;;;;;;;6486941;47;8983;-61
2023/07/24 13:27:26;;;;;;;;;11.75;11.75;;;;;;;;6488223;31;8940;-62
2023/07/24 13:33:36;;;;;;;;;12.00;12.00;;;;;;;;6483691;47;8947;-58
2023/07/24 13:39:38;;;;;;;;;15.00;15.00;;;;;;;;6486651;31;9057;-59
2023/07/24 13:45:43;;;;;;;;;13.50;13.50;;;;;;;;6485085;47;8937;-59
2023/07/24 13:51:46;;;;;;;;;14.75;14.75;;;;;;;;6487897;31;8942;-59
2023/07/24 13:57:49;;;;;;;;;13.25;11.50;;;;;;;;6487303;47;8959;-60
2023/07/24 14:03:53;;;;;;;;;14.25;13.50;;;;;;;;6486861;31;8933;-61
2023/07/24 14:10:01;;;;;;;;;12.75;12.25;;;;;;;;6487535;39;8985;-59
2023/07/24 14:16:03;;;;;;;;;12.50;12.50;;;;;;;;6488936;39;8927;-59
2023/07/24 14:22:07;;;;;;;;;9.50;9.50;;;;;;;;6489245;39;8942;-61
2023/07/24 14:28:09;;;;;;;;;16.00;13.25;;;;;;;;6489979;39;8928;-59
2023/07/24 14:34:13;;;;;;;;;13.25;11.75;;;;;;;;6488903;39;8923;-61
2023/07/24 14:40:16;;;;;;;;;13.00;12.00;;;;;;;;6488680;39;8948;-61
2023/07/24 14:46:20;;;;;;;;;17.00;14.25;;;;;;;;6488990;46;8917;-59
2023/07/24 14:52:25;;;;;;;;;15.50;13.00;;;;;;;;6488677;39;8974;-61
2023/07/24 14:58:28;;;;;;;;;14.25;13.00;;;;;;;;6488838;31;9247;-60
2023/07/24 15:04:30;;;;;;;;;12.75;12.25;;;;;;;;6489769;39;8907;-59
2023/07/24 15:10:33;;;;;;;;;11.25;11.00;;;;;;;;6489290;31;8877;-62
2023/07/24 15:16:36;;;;;;;;;11.50;11.50;;;;;;;;6487671;39;9056;-60
2023/07/24 15:22:40;;;;;;;;;14.00;13.00;;;;;;;;6489058;39;8930;-60
2023/07/24 15:28:42;;;;;;;;;15.00;15.00;;;;;;;;6489598;31;9570;-60
2023/07/24 15:34:44;;;;;;;;;13.50;13.50;;;;;;;;6488524;31;8924;-59
2023/07/24 15:40:48;;;;;;;;;16.00;14.00;;;;;;;;6489233;39;8936;-59
2023/07/24 15:46:50;;;;;;;;;15.00;15.00;;;;;;;;6489487;39;8928;-65
2023/07/24 15:52:56;;;;;;;;;16.00;14.50;;;;;;;;6489414;39;8965;-65
2023/07/24 15:59:00;;;;;;;;;13.00;12.00;;;;;;;;6488269;31;8951;-64
2023/07/24 16:05:19;;;;;;;;;14.50;13.75;;;;;;;;6487277;46;8949;-57
2023/07/24 16:11:21;;;;;;;;;14.00;13.00;;;;;;;;6488397;39;8949;-57
2023/07/24 16:17:23;;;;;;;;;16.50;15.50;;;;;;;;6487149;46;8956;-56
2023/07/24 16:23:27;;;;;;;;;18.00;15.00;;;;;;;;6488543;31;8947;-57
2023/07/24 16:29:32;;;;;;;;;14.75;14.75;;;;;;;;6487099;46;8976;-57
2023/07/24 16:35:35;;;;;;;;;16.75;15.75;;;;;;;;6486470;31;8929;-56
2023/07/24 16:41:39;;;;;;;;;14.50;14.50;;;;;;;;6487055;39;8983;-57
2023/07/24 16:47:45;;;;;;;;;18.50;17.50;;;;;;;;6487770;31;8969;-56
2023/07/24 16:53:48;;;;;;;;;17.00;15.00;;;;;;;;6487085;46;8961;-59
2023/07/24 16:59:50;;;;;;;;;20.25;18.00;;;;;;;;6488328;39;8905;-58
2023/07/24 17:05:53;;;;;;;;;18.50;18.50;;;;;;;;6488069;46;8923;-57
2023/07/24 17:11:56;;;;;;;;;18.75;17.00;;;;;;;;6487788;31;8963;-56
2023/07/24 17:17:59;;;;;;;;;18.25;17.50;;;;;;;;6489071;31;9122;-56
2023/07/24 17:24:03;;;;;;;;;20.25;19.75;;;;;;;;6488376;47;8888;-56
2023/07/24 17:30:07;;;;;;;;;16.50;15.25;;;;;;;;6488088;39;8879;-56
2023/07/24 17:36:09;;;;;;;;;19.25;16.75;;;;;;;;6486723;39;8929;-56
2023/07/24 17:42:13;;;;;;;;;18.50;15.25;;;;;;;;6488176;46;8887;-57
2023/07/24 17:48:16;;;;;;;;;18.50;18.50;;;;;;;;6489244;39;8921;-55
2023/07/24 17:54:18;;;;;;;;;20.75;18.00;;;;;;;;6491580;31;8972;-55
2023/07/24 18:00:21;;;;;;;;;17.25;15.00;;;;;;;;6489487;46;9010;-58
2023/07/24 18:06:25;;;;;;;;;25.50;21.00;;;;;;;;6489108;46;9017;-57
2023/07/24 18:12:28;;;;;;;;;22.75;19.75;;;;;;;;6490268;31;9429;-57
2023/07/24 18:18:31;;;;;;;;;19.25;19.25;;;;;;;;6490604;31;9031;-58
2023/07/24 18:24:35;;;;;;;;;25.75;25.50;;;;;;;;6489699;39;8863;-56
2023/07/24 18:30:38;;;;;;;;;25.75;25.75;;;;;;;;6489584;39;8913;-57
2023/07/24 18:36:40;;;;;;;;;30.00;24.25;;;;;;;;6489964;39;8941;-55
2023/07/24 18:42:48;;;;;;;;;19.50;18.75;;;;;;;;6489646;31;8893;-57
2023/07/24 18:48:51;;;;;;;;;22.00;19.25;;;;;;;;6488421;46;8959;-57
2023/07/24 18:54:54;;;;;;;;;19.50;17.25;;;;;;;;6490094;31;8973;-56
2023/07/24 19:00:56;;;;;;;;;19.75;19.50;;;;;;;;6489696;39;8915;-57
2023/07/24 19:07:00;;;;;;;;;21.50;19.75;;;;;;;;6488527;39;9065;-57
2023/07/24 19:13:03;;;;;;;;;19.00;18.75;;;;;;;;6488162;31;9720;-57
2023/07/24 19:19:08;;;;;;;;;18.25;18.25;;;;;;;;6488606;39;8925;-58
2023/07/24 19:25:11;;;;;;;;;22.25;20.00;;;;;;;;6489449;46;8909;-57
2023/07/24 19:31:15;;;;;;;;;22.25;20.00;;;;;;;;6488924;39;8945;-54
2023/07/24 19:37:18;;;;;;;;;19.50;19.50;;;;;;;;6488920;39;8887;-57
2023/07/24 19:43:20;;;;;;;;;18.75;18.00;;;;;;;;6489050;39;8913;-55
2023/07/24 19:49:23;;;;;;;;;19.75;19.75;;;;;;;;6488026;31;8966;-57
2023/07/24 19:55:25;;;;;;;;;17.50;16.75;;;;;;;;6488062;39;8964;-56
2023/07/24 20:01:28;;;;;;;;;17.50;17.50;;;;;;;;6488667;39;8895;-57
2023/07/24 20:07:32;;;;;;;;;21.00;19.75;;;;;;;;6489116;39;8897;-57
2023/07/24 20:13:37;;;;;;;;;22.25;21.00;;;;;;;;6487973;46;8889;-56
2023/07/24 20:19:40;;;;;;;;;19.50;19.25;;;;;;;;6488809;39;8909;-55
2023/07/24 20:25:46;;;;;;;;;24.00;23.75;;;;;;;;6487660;46;8903;-57
2023/07/24 20:31:48;;;;;;;;;23.75;23.25;;;;;;;;6488601;39;8865;-58
2023/07/24 20:37:51;;;;;;;;;20.50;20.50;;;;;;;;6488328;46;8891;-56
2023/07/24 20:43:54;;;;;;;;;21.75;19.00;;;;;;;;6487284;46;8881;-57
2023/07/24 20:49:58;;;;;;;;;25.00;24.50;;;;;;;;6488041;31;8880;-55
2023/07/24 20:56:03;;;;;;;;;28.25;28.00;;;;;;;;6488465;31;8958;-56
2023/07/24 21:02:06;;;;;;;;;27.25;25.25;;;;;;;;6488449;31;8873;-57
2023/07/24 21:08:08;;;;;;;;;26.25;25.50;;;;;;;;6487202;39;8973;-57
2023/07/24 21:14:11;;;;;;;;;29.50;26.25;;;;;;;;6488484;39;9569;-57
2023/07/24 21:20:14;;;;;;;;;24.75;23.25;;;;;;;;6488288;47;8878;-55
2023/07/24 21:26:18;;;;;;;;;28.00;27.25;;;;;;;;6488179;31;8928;-58
2023/07/24 21:32:20;;;;;;;;;32.50;30.25;;;;;;;;6487738;39;8895;-57
2023/07/24 21:38:23;;;;;;;;;29.00;26.25;;;;;;;;6486986;47;8927;-57
2023/07/24 21:44:25;;;;;;;;;28.00;25.25;;;;;;;;6487222;47;8910;-56
2023/07/24 21:50:27;;;;;;;;;22.00;21.50;;;;;;;;6487010;39;8932;-56
2023/07/24 21:56:32;;;;;;;;;35.50;29.50;;;;;;;;6489140;39;9581;-57
2023/07/24 22:02:35;;;;;;;;;36.00;31.50;;;;;;;;6487780;39;8883;-57
2023/07/24 22:08:37;;;;;;;;;28.75;25.25;;;;;;;;6486616;39;9356;-56
2023/07/24 22:14:41;;;;;;;;;28.75;28.50;;;;;;;;6486263;47;8895;-56
2023/07/24 22:20:44;;;;;;;;;21.75;18.75;;;;;;;;6397751;36;5001598;-56
2023/07/24 22:26:48;;;;;;;;;22.25;19.25;;;;;;;;6488518;46;8978;-57
2023/07/24 22:32:51;;;;;;;;;26.50;22.75;;;;;;;;6490256;46;8890;-56
2023/07/24 22:38:55;;;;;;;;;20.50;17.75;;;;;;;;6488968;46;8845;-56
2023/07/24 22:44:57;;;;;;;;;23.00;21.50;;;;;;;;6489520;39;9090;-56
2023/07/24 22:51:00;;;;;;;;;19.50;19.00;;;;;;;;6489508;39;8975;-56
2023/07/24 22:57:05;;;;;;;;;25.75;20.75;;;;;;;;6490511;31;8928;-59
2023/07/24 23:03:12;;;;;;;;;24.25;21.50;;;;;;;;6489298;46;9053;-57
2023/07/24 23:09:17;;;;;;;;;24.00;21.75;;;;;;;;6488619;39;8909;-54
2023/07/24 23:15:20;;;;;;;;;21.00;21.00;;;;;;;;6488492;46;8872;-56
2023/07/24 23:21:22;;;;;;;;;22.00;20.50;;;;;;;;6489638;39;8846;-59
2023/07/24 23:27:26;;;;;;;;;24.25;21.25;;;;;;;;6489085;39;8909;-56
2023/07/24 23:33:32;;;;;;;;;18.00;17.25;;;;;;;;6488892;39;8870;-56
2023/07/24 23:39:36;;;;;;;;;23.25;22.50;;;;;;;;6489056;46;8904;-53
2023/07/24 23:45:40;;;;;;;;;26.00;24.25;;;;;;;;6489006;39;8849;-56
2023/07/24 23:51:42;;;;;;;;;18.75;17.50;;;;;;;;6487815;31;8930;-56
2023/07/24 23:57:48;;;;;;;;;25.00;24.25;;;;;;;;6488959;39;8887;-56
